sensor_id;sensor_type;location;lat;lon;timestamp;temperature;humidity
64685;DHT22;51109;47.414;18.954;2023-12-20T00:00:26;-0.70;99.90
64685;DHT22;51109;47.414;18.954;2023-12-20T00:02:52;-0.70;99.90
64685;DHT22;51109;47.414;18.954;2023-12-20T00:05:18;-0.70;99.90
64685;DHT22;51109;47.414;18.954;2023-12-20T00:07:43;-0.70;99.90
64685;DHT22;51109;47.414;18.954;2023-12-20T00:10:09;-0.70;99.90
64685;DHT22;51109;47.414;18.954;2023-12-20T00:12:35;-0.70;99.90
64685;DHT22;51109;47.414;18.954;2023-12-20T00:15:01;-0.70;99.90
64685;DHT22;51109;47.414;18.954;2023-12-20T00:17:27;-0.70;99.90
64685;DHT22;51109;47.414;18.954;2023-12-20T00:19:52;-0.60;99.90
64685;DHT22;51109;47.414;18.954;2023-12-20T00:22:18;-0.60;99.90
64685;DHT22;51109;47.414;18.954;2023-12-20T00:24:44;-0.60;99.90
64685;DHT22;51109;47.414;18.954;2023-12-20T00:27:10;-0.60;99.90
64685;DHT22;51109;47.414;18.954;2023-12-20T00:29:36;-0.60;99.90
64685;DHT22;51109;47.414;18.954;2023-12-20T00:32:02;-0.50;99.90
64685;DHT22;51109;47.414;18.954;2023-12-20T00:34:27;-0.50;99.90
64685;DHT22;51109;47.414;18.954;2023-12-20T00:36:53;-0.60;99.90
64685;DHT22;51109;47.414;18.954;2023-12-20T00:39:20;-0.60;99.90
64685;DHT22;51109;47.414;18.954;2023-12-20T00:41:46;-0.60;99.90
64685;DHT22;51109;47.414;18.954;2023-12-20T00:44:11;-0.60;99.90
64685;DHT22;51109;47.414;18.954;2023-12-20T00:46:37;-0.70;99.90
64685;DHT22;51109;47.414;18.954;2023-12-20T00:49:03;-0.70;99.90
64685;DHT22;51109;47.414;18.954;2023-12-20T00:51:29;-0.60;99.90
64685;DHT22;51109;47.414;18.954;2023-12-20T00:53:54;-0.70;99.90
64685;DHT22;51109;47.414;18.954;2023-12-20T00:56:21;-0.60;99.90
64685;DHT22;51109;47.414;18.954;2023-12-20T00:58:47;-0.70;99.90
64685;DHT22;51109;47.414;18.954;2023-12-20T01:01:13;-0.70;99.90
64685;DHT22;51109;47.414;18.954;2023-12-20T01:03:38;-0.80;99.90
64685;DHT22;51109;47.414;18.954;2023-12-20T01:06:05;-0.80;99.90
64685;DHT22;51109;47.414;18.954;2023-12-20T01:08:30;-0.80;99.90
64685;DHT22;51109;47.414;18.954;2023-12-20T01:10:56;-0.80;99.90
64685;DHT22;51109;47.414;18.954;2023-12-20T01:13:22;-0.80;99.90
64685;DHT22;51109;47.414;18.954;2023-12-20T01:15:48;-0.80;99.90
64685;DHT22;51109;47.414;18.954;2023-12-20T01:18:14;-0.70;99.90
64685;DHT22;51109;47.414;18.954;2023-12-20T01:20:40;-0.80;99.90
64685;DHT22;51109;47.414;18.954;2023-12-20T01:23:06;-0.80;99.90
64685;DHT22;51109;47.414;18.954;2023-12-20T01:25:31;-0.80;99.90
64685;DHT22;51109;47.414;18.954;2023-12-20T01:27:57;-0.80;99.90
64685;DHT22;51109;47.414;18.954;2023-12-20T01:30:23;-0.80;99.90
64685;DHT22;51109;47.414;18.954;2023-12-20T01:32:49;-0.80;99.90
64685;DHT22;51109;47.414;18.954;2023-12-20T01:35:15;-0.80;99.90
64685;DHT22;51109;47.414;18.954;2023-12-20T01:37:41;-0.80;99.90
64685;DHT22;51109;47.414;18.954;2023-12-20T01:40:07;-0.80;99.90
64685;DHT22;51109;47.414;18.954;2023-12-20T01:42:33;-0.80;99.90
64685;DHT22;51109;47.414;18.954;2023-12-20T01:44:59;-0.80;99.90
64685;DHT22;51109;47.414;18.954;2023-12-20T01:47:25;-0.80;99.90
64685;DHT22;51109;47.414;18.954;2023-12-20T01:49:52;-0.80;99.90
64685;DHT22;51109;47.414;18.954;2023-12-20T01:52:19;-0.80;99.90
64685;DHT22;51109;47.414;18.954;2023-12-20T01:54:45;-0.80;99.90
64685;DHT22;51109;47.414;18.954;2023-12-20T01:57:12;-0.80;99.90
64685;DHT22;51109;47.414;18.954;2023-12-20T01:59:39;-0.80;99.90
64685;DHT22;51109;47.414;18.954;2023-12-20T02:04:40;-0.80;99.90
64685;DHT22;51109;47.414;18.954;2023-12-20T02:07:07;-0.80;99.90
64685;DHT22;51109;47.414;18.954;2023-12-20T02:09:34;-0.80;99.90
64685;DHT22;51109;47.414;18.954;2023-12-20T02:12:00;-0.80;99.90
64685;DHT22;51109;47.414;18.954;2023-12-20T02:14:26;-0.80;99.90
64685;DHT22;51109;47.414;18.954;2023-12-20T02:16:52;-0.80;99.90
64685;DHT22;51109;47.414;18.954;2023-12-20T02:19:20;-0.80;99.90
64685;DHT22;51109;47.414;18.954;2023-12-20T02:21:47;-0.80;99.90
64685;DHT22;51109;47.414;18.954;2023-12-20T02:24:12;-0.80;99.90
64685;DHT22;51109;47.414;18.954;2023-12-20T02:26:38;-0.80;99.90
64685;DHT22;51109;47.414;18.954;2023-12-20T02:29:04;-0.80;99.90
64685;DHT22;51109;47.414;18.954;2023-12-20T02:31:30;-0.80;99.90
64685;DHT22;51109;47.414;18.954;2023-12-20T02:33:56;-0.80;99.90
64685;DHT22;51109;47.414;18.954;2023-12-20T02:36:21;-0.80;99.90
64685;DHT22;51109;47.414;18.954;2023-12-20T02:38:47;-0.90;99.90
64685;DHT22;51109;47.414;18.954;2023-12-20T02:41:13;-0.90;99.90
64685;DHT22;51109;47.414;18.954;2023-12-20T02:43:41;-0.90;99.90
64685;DHT22;51109;47.414;18.954;2023-12-20T02:46:07;-1.00;99.90
64685;DHT22;51109;47.414;18.954;2023-12-20T02:48:32;-0.90;99.90
64685;DHT22;51109;47.414;18.954;2023-12-20T02:50:58;-0.90;99.90
64685;DHT22;51109;47.414;18.954;2023-12-20T02:53:24;-0.90;99.90
64685;DHT22;51109;47.414;18.954;2023-12-20T02:55:50;-0.90;99.90
64685;DHT22;51109;47.414;18.954;2023-12-20T02:58:16;-0.90;99.90
64685;DHT22;51109;47.414;18.954;2023-12-20T03:00:43;-0.90;99.90
64685;DHT22;51109;47.414;18.954;2023-12-20T03:03:09;-0.90;99.90
64685;DHT22;51109;47.414;18.954;2023-12-20T03:05:34;-1.00;99.90
64685;DHT22;51109;47.414;18.954;2023-12-20T03:08:00;-0.90;99.90
64685;DHT22;51109;47.414;18.954;2023-12-20T03:10:26;-1.00;99.90
64685;DHT22;51109;47.414;18.954;2023-12-20T03:12:52;-1.00;99.90
64685;DHT22;51109;47.414;18.954;2023-12-20T03:15:17;-1.00;99.90
64685;DHT22;51109;47.414;18.954;2023-12-20T03:17:43;-1.00;99.90
64685;DHT22;51109;47.414;18.954;2023-12-20T03:20:09;-1.00;99.90
64685;DHT22;51109;47.414;18.954;2023-12-20T03:22:35;-1.00;99.90
64685;DHT22;51109;47.414;18.954;2023-12-20T03:25:01;-0.90;99.90
64685;DHT22;51109;47.414;18.954;2023-12-20T03:27:26;-1.00;99.90
64685;DHT22;51109;47.414;18.954;2023-12-20T03:29:52;-0.90;99.90
64685;DHT22;51109;47.414;18.954;2023-12-20T03:32:18;-0.90;99.90
64685;DHT22;51109;47.414;18.954;2023-12-20T03:34:44;-1.00;99.90
64685;DHT22;51109;47.414;18.954;2023-12-20T03:37:09;-1.00;99.90
64685;DHT22;51109;47.414;18.954;2023-12-20T03:39:35;-0.90;99.90
64685;DHT22;51109;47.414;18.954;2023-12-20T03:42:01;-1.00;99.90
64685;DHT22;51109;47.414;18.954;2023-12-20T03:44:26;-1.00;99.90
64685;DHT22;51109;47.414;18.954;2023-12-20T03:46:52;-0.90;99.90
64685;DHT22;51109;47.414;18.954;2023-12-20T03:49:18;-1.00;99.90
64685;DHT22;51109;47.414;18.954;2023-12-20T03:51:44;-1.00;99.90
64685;DHT22;51109;47.414;18.954;2023-12-20T03:54:09;-0.90;99.90
64685;DHT22;51109;47.414;18.954;2023-12-20T03:56:35;-1.00;99.90
64685;DHT22;51109;47.414;18.954;2023-12-20T03:59:01;-1.00;99.90
64685;DHT22;51109;47.414;18.954;2023-12-20T04:01:26;-0.90;99.90
64685;DHT22;51109;47.414;18.954;2023-12-20T04:03:52;-0.90;99.90
64685;DHT22;51109;47.414;18.954;2023-12-20T04:06:18;-0.90;99.90
64685;DHT22;51109;47.414;18.954;2023-12-20T04:08:44;-0.90;99.90
64685;DHT22;51109;47.414;18.954;2023-12-20T04:11:10;-0.90;99.90
64685;DHT22;51109;47.414;18.954;2023-12-20T04:13:36;-0.90;99.90
64685;DHT22;51109;47.414;18.954;2023-12-20T04:16:02;-0.90;99.90
64685;DHT22;51109;47.414;18.954;2023-12-20T04:18:28;-0.90;99.90
64685;DHT22;51109;47.414;18.954;2023-12-20T04:20:54;-0.90;99.90
64685;DHT22;51109;47.414;18.954;2023-12-20T04:23:20;-0.90;99.90
64685;DHT22;51109;47.414;18.954;2023-12-20T04:25:45;-0.80;99.90
64685;DHT22;51109;47.414;18.954;2023-12-20T04:28:12;-0.80;99.90
64685;DHT22;51109;47.414;18.954;2023-12-20T04:33:04;-0.90;99.90
64685;DHT22;51109;47.414;18.954;2023-12-20T04:35:30;-0.80;99.90
64685;DHT22;51109;47.414;18.954;2023-12-20T04:37:55;-0.90;99.90
64685;DHT22;51109;47.414;18.954;2023-12-20T04:40:21;-0.90;99.90
64685;DHT22;51109;47.414;18.954;2023-12-20T04:42:47;-0.90;99.90
64685;DHT22;51109;47.414;18.954;2023-12-20T04:45:12;-0.90;99.90
64685;DHT22;51109;47.414;18.954;2023-12-20T04:47:42;-1.00;99.90
64685;DHT22;51109;47.414;18.954;2023-12-20T04:50:08;-1.00;99.90
64685;DHT22;51109;47.414;18.954;2023-12-20T04:52:35;-1.00;99.90
64685;DHT22;51109;47.414;18.954;2023-12-20T04:55:01;-1.00;99.90
64685;DHT22;51109;47.414;18.954;2023-12-20T04:57:27;-1.00;99.90
64685;DHT22;51109;47.414;18.954;2023-12-20T04:59:52;-0.90;99.90
64685;DHT22;51109;47.414;18.954;2023-12-20T05:02:18;-0.90;99.90
64685;DHT22;51109;47.414;18.954;2023-12-20T05:04:44;-0.90;99.90
64685;DHT22;51109;47.414;18.954;2023-12-20T05:07:10;-1.00;99.90
64685;DHT22;51109;47.414;18.954;2023-12-20T05:09:35;-1.00;99.90
64685;DHT22;51109;47.414;18.954;2023-12-20T05:12:01;-1.00;99.90
64685;DHT22;51109;47.414;18.954;2023-12-20T05:14:27;-1.00;99.90
64685;DHT22;51109;47.414;18.954;2023-12-20T05:16:53;-1.00;99.90
64685;DHT22;51109;47.414;18.954;2023-12-20T05:19:19;-1.10;99.90
64685;DHT22;51109;47.414;18.954;2023-12-20T05:21:45;-1.10;99.90
64685;DHT22;51109;47.414;18.954;2023-12-20T05:24:10;-1.10;99.90
64685;DHT22;51109;47.414;18.954;2023-12-20T05:26:36;-1.00;99.90
64685;DHT22;51109;47.414;18.954;2023-12-20T05:29:02;-1.10;99.90
64685;DHT22;51109;47.414;18.954;2023-12-20T05:31:28;-1.10;99.90
64685;DHT22;51109;47.414;18.954;2023-12-20T05:33:54;-1.00;99.90
64685;DHT22;51109;47.414;18.954;2023-12-20T05:36:20;-1.10;99.90
64685;DHT22;51109;47.414;18.954;2023-12-20T05:38:46;-1.20;99.90
64685;DHT22;51109;47.414;18.954;2023-12-20T05:41:12;-1.20;99.90
64685;DHT22;51109;47.414;18.954;2023-12-20T05:43:37;-1.20;99.90
64685;DHT22;51109;47.414;18.954;2023-12-20T05:46:03;-1.10;99.90
64685;DHT22;51109;47.414;18.954;2023-12-20T05:48:29;-1.10;99.90
64685;DHT22;51109;47.414;18.954;2023-12-20T05:50:55;-1.10;99.90
64685;DHT22;51109;47.414;18.954;2023-12-20T05:53:21;-1.20;99.90
64685;DHT22;51109;47.414;18.954;2023-12-20T05:55:47;-1.20;99.90
64685;DHT22;51109;47.414;18.954;2023-12-20T05:58:13;-1.10;99.90
64685;DHT22;51109;47.414;18.954;2023-12-20T06:00:39;-1.10;99.90
64685;DHT22;51109;47.414;18.954;2023-12-20T06:03:04;-1.10;99.90
64685;DHT22;51109;47.414;18.954;2023-12-20T06:05:31;-1.10;99.90
64685;DHT22;51109;47.414;18.954;2023-12-20T06:07:57;-1.10;99.90
64685;DHT22;51109;47.414;18.954;2023-12-20T06:10:27;-1.10;99.90
64685;DHT22;51109;47.414;18.954;2023-12-20T06:12:52;-1.10;99.90
64685;DHT22;51109;47.414;18.954;2023-12-20T06:15:18;-1.10;99.90
64685;DHT22;51109;47.414;18.954;2023-12-20T06:17:44;-1.20;99.90
64685;DHT22;51109;47.414;18.954;2023-12-20T06:20:12;-1.20;99.90
64685;DHT22;51109;47.414;18.954;2023-12-20T06:22:38;-1.00;99.90
64685;DHT22;51109;47.414;18.954;2023-12-20T06:25:05;-1.00;99.90
64685;DHT22;51109;47.414;18.954;2023-12-20T06:27:31;-0.90;99.90
64685;DHT22;51109;47.414;18.954;2023-12-20T06:29:58;-0.90;99.90
64685;DHT22;51109;47.414;18.954;2023-12-20T06:32:24;-0.90;99.90
64685;DHT22;51109;47.414;18.954;2023-12-20T06:34:50;-0.90;99.90
64685;DHT22;51109;47.414;18.954;2023-12-20T06:37:16;-0.90;99.90
64685;DHT22;51109;47.414;18.954;2023-12-20T06:39:42;-0.90;99.90
64685;DHT22;51109;47.414;18.954;2023-12-20T06:42:08;-0.90;99.90
64685;DHT22;51109;47.414;18.954;2023-12-20T06:44:33;-1.00;99.90
64685;DHT22;51109;47.414;18.954;2023-12-20T06:47:00;-1.10;99.90
64685;DHT22;51109;47.414;18.954;2023-12-20T06:49:26;-1.10;99.90
64685;DHT22;51109;47.414;18.954;2023-12-20T06:51:51;-1.20;99.90
64685;DHT22;51109;47.414;18.954;2023-12-20T06:54:18;-1.20;99.90
64685;DHT22;51109;47.414;18.954;2023-12-20T06:56:44;-1.30;99.90
64685;DHT22;51109;47.414;18.954;2023-12-20T06:59:10;-1.40;99.90
64685;DHT22;51109;47.414;18.954;2023-12-20T07:01:36;-1.40;99.90
64685;DHT22;51109;47.414;18.954;2023-12-20T07:04:02;-1.40;99.90
64685;DHT22;51109;47.414;18.954;2023-12-20T07:06:28;-1.40;99.90
64685;DHT22;51109;47.414;18.954;2023-12-20T07:08:53;-1.40;99.90
64685;DHT22;51109;47.414;18.954;2023-12-20T07:11:19;-1.40;99.90
64685;DHT22;51109;47.414;18.954;2023-12-20T07:16:11;-1.20;99.90
64685;DHT22;51109;47.414;18.954;2023-12-20T07:18:37;-1.20;99.90
64685;DHT22;51109;47.414;18.954;2023-12-20T07:21:03;-1.30;99.90
64685;DHT22;51109;47.414;18.954;2023-12-20T07:23:29;-1.10;99.90
64685;DHT22;51109;47.414;18.954;2023-12-20T07:25:55;-1.00;99.90
64685;DHT22;51109;47.414;18.954;2023-12-20T07:28:20;-1.10;99.90
64685;DHT22;51109;47.414;18.954;2023-12-20T07:30:46;-1.00;99.90
64685;DHT22;51109;47.414;18.954;2023-12-20T07:33:12;-1.10;99.90
64685;DHT22;51109;47.414;18.954;2023-12-20T07:35:38;-1.20;99.90
64685;DHT22;51109;47.414;18.954;2023-12-20T07:38:04;-1.20;99.90
64685;DHT22;51109;47.414;18.954;2023-12-20T07:40:30;-1.10;99.90
64685;DHT22;51109;47.414;18.954;2023-12-20T07:42:56;-1.10;99.90
64685;DHT22;51109;47.414;18.954;2023-12-20T07:45:21;-1.00;99.90
64685;DHT22;51109;47.414;18.954;2023-12-20T07:47:47;-1.00;99.90
64685;DHT22;51109;47.414;18.954;2023-12-20T07:50:14;-1.00;99.90
64685;DHT22;51109;47.414;18.954;2023-12-20T07:52:40;-0.90;99.90
64685;DHT22;51109;47.414;18.954;2023-12-20T07:55:06;-0.90;99.90
64685;DHT22;51109;47.414;18.954;2023-12-20T07:57:32;-0.90;99.90
64685;DHT22;51109;47.414;18.954;2023-12-20T07:59:58;-1.00;99.90
64685;DHT22;51109;47.414;18.954;2023-12-20T08:02:24;-1.00;99.90
64685;DHT22;51109;47.414;18.954;2023-12-20T08:04:49;-1.00;99.90
64685;DHT22;51109;47.414;18.954;2023-12-20T08:07:15;-1.00;99.90
64685;DHT22;51109;47.414;18.954;2023-12-20T08:09:41;-0.90;99.90
64685;DHT22;51109;47.414;18.954;2023-12-20T08:12:09;-0.90;99.90
64685;DHT22;51109;47.414;18.954;2023-12-20T08:14:35;-0.90;99.90
64685;DHT22;51109;47.414;18.954;2023-12-20T08:17:00;-0.80;99.90
64685;DHT22;51109;47.414;18.954;2023-12-20T08:19:26;-0.80;99.90
64685;DHT22;51109;47.414;18.954;2023-12-20T08:21:52;-0.80;99.90
64685;DHT22;51109;47.414;18.954;2023-12-20T08:24:18;-0.80;99.90
64685;DHT22;51109;47.414;18.954;2023-12-20T08:26:43;-0.80;99.90
64685;DHT22;51109;47.414;18.954;2023-12-20T08:29:09;-0.70;99.90
64685;DHT22;51109;47.414;18.954;2023-12-20T08:31:35;-0.60;99.90
64685;DHT22;51109;47.414;18.954;2023-12-20T08:34:01;-0.60;99.90
64685;DHT22;51109;47.414;18.954;2023-12-20T08:36:27;-0.50;99.90
64685;DHT22;51109;47.414;18.954;2023-12-20T08:38:52;-0.50;99.90
64685;DHT22;51109;47.414;18.954;2023-12-20T08:41:18;-0.40;99.90
64685;DHT22;51109;47.414;18.954;2023-12-20T08:43:45;-0.30;99.90
64685;DHT22;51109;47.414;18.954;2023-12-20T08:46:11;-0.30;99.90
64685;DHT22;51109;47.414;18.954;2023-12-20T08:48:37;-0.30;99.90
64685;DHT22;51109;47.414;18.954;2023-12-20T08:51:04;-0.30;99.90
64685;DHT22;51109;47.414;18.954;2023-12-20T08:53:30;-0.40;99.90
64685;DHT22;51109;47.414;18.954;2023-12-20T08:55:55;-0.30;99.90
64685;DHT22;51109;47.414;18.954;2023-12-20T08:58:23;-0.20;99.90
64685;DHT22;51109;47.414;18.954;2023-12-20T09:00:49;-0.20;99.90
64685;DHT22;51109;47.414;18.954;2023-12-20T09:03:15;-0.10;99.90
64685;DHT22;51109;47.414;18.954;2023-12-20T09:05:40;0.00;99.90
64685;DHT22;51109;47.414;18.954;2023-12-20T09:08:06;0.00;99.90
64685;DHT22;51109;47.414;18.954;2023-12-20T09:10:33;0.00;99.90
64685;DHT22;51109;47.414;18.954;2023-12-20T09:12:59;0.00;99.90
64685;DHT22;51109;47.414;18.954;2023-12-20T09:15:26;0.00;99.90
64685;DHT22;51109;47.414;18.954;2023-12-20T09:17:52;-0.20;99.90
64685;DHT22;51109;47.414;18.954;2023-12-20T09:20:18;0.00;99.90
64685;DHT22;51109;47.414;18.954;2023-12-20T09:22:44;0.00;99.90
64685;DHT22;51109;47.414;18.954;2023-12-20T09:25:10;0.10;99.90
64685;DHT22;51109;47.414;18.954;2023-12-20T09:27:38;0.20;99.90
64685;DHT22;51109;47.414;18.954;2023-12-20T09:30:04;0.30;99.90
64685;DHT22;51109;47.414;18.954;2023-12-20T09:32:31;0.30;99.90
64685;DHT22;51109;47.414;18.954;2023-12-20T09:34:57;0.40;99.90
64685;DHT22;51109;47.414;18.954;2023-12-20T09:37:27;0.40;99.90
64685;DHT22;51109;47.414;18.954;2023-12-20T09:39:54;0.40;99.90
64685;DHT22;51109;47.414;18.954;2023-12-20T09:42:55;0.30;99.90
64685;DHT22;51109;47.414;18.954;2023-12-20T09:45:22;0.30;99.90
64685;DHT22;51109;47.414;18.954;2023-12-20T09:47:53;0.40;99.90
64685;DHT22;51109;47.414;18.954;2023-12-20T09:50:22;0.50;99.90
64685;DHT22;51109;47.414;18.954;2023-12-20T09:52:53;0.70;99.90
64685;DHT22;51109;47.414;18.954;2023-12-20T09:55:19;0.70;99.90
64685;DHT22;51109;47.414;18.954;2023-12-20T09:57:49;0.80;99.90
64685;DHT22;51109;47.414;18.954;2023-12-20T10:00:15;0.80;99.90
64685;DHT22;51109;47.414;18.954;2023-12-20T10:02:59;0.80;99.90
64685;DHT22;51109;47.414;18.954;2023-12-20T10:05:30;0.90;99.90
64685;DHT22;51109;47.414;18.954;2023-12-20T10:07:56;0.70;99.90
64685;DHT22;51109;47.414;18.954;2023-12-20T10:10:22;0.80;99.90
64685;DHT22;51109;47.414;18.954;2023-12-20T10:13:08;0.70;99.90
64685;DHT22;51109;47.414;18.954;2023-12-20T10:15:34;0.80;99.90
64685;DHT22;51109;47.414;18.954;2023-12-20T10:18:04;0.90;99.90
64685;DHT22;51109;47.414;18.954;2023-12-20T10:20:30;1.00;99.90
64685;DHT22;51109;47.414;18.954;2023-12-20T10:23:00;1.10;99.90
64685;DHT22;51109;47.414;18.954;2023-12-20T10:25:27;1.20;99.90
64685;DHT22;51109;47.414;18.954;2023-12-20T10:30:35;1.50;99.90
64685;DHT22;51109;47.414;18.954;2023-12-20T10:33:01;1.60;99.90
64685;DHT22;51109;47.414;18.954;2023-12-20T10:35:27;1.70;99.90
64685;DHT22;51109;47.414;18.954;2023-12-20T10:37:56;1.80;99.90
64685;DHT22;51109;47.414;18.954;2023-12-20T10:40:22;1.80;99.90
64685;DHT22;51109;47.414;18.954;2023-12-20T10:42:49;1.90;99.90
64685;DHT22;51109;47.414;18.954;2023-12-20T10:45:16;2.00;99.90
64685;DHT22;51109;47.414;18.954;2023-12-20T10:47:46;2.30;99.90
64685;DHT22;51109;47.414;18.954;2023-12-20T10:50:12;2.30;99.90
64685;DHT22;51109;47.414;18.954;2023-12-20T10:52:40;2.40;99.90
64685;DHT22;51109;47.414;18.954;2023-12-20T10:55:07;3.00;99.90
64685;DHT22;51109;47.414;18.954;2023-12-20T10:57:36;3.80;99.90
64685;DHT22;51109;47.414;18.954;2023-12-20T11:00:02;4.30;99.90
64685;DHT22;51109;47.414;18.954;2023-12-20T11:02:32;4.50;99.90
64685;DHT22;51109;47.414;18.954;2023-12-20T11:08:44;4.90;99.90
64685;DHT22;51109;47.414;18.954;2023-12-20T11:11:13;5.00;99.90
64685;DHT22;51109;47.414;18.954;2023-12-20T11:14:03;5.20;99.90
64685;DHT22;51109;47.414;18.954;2023-12-20T11:16:37;5.40;99.90
64685;DHT22;51109;47.414;18.954;2023-12-20T11:19:05;5.40;99.90
64685;DHT22;51109;47.414;18.954;2023-12-20T11:21:31;5.40;99.90
64685;DHT22;51109;47.414;18.954;2023-12-20T11:23:57;5.40;99.90
64685;DHT22;51109;47.414;18.954;2023-12-20T11:26:27;5.50;99.90
64685;DHT22;51109;47.414;18.954;2023-12-20T11:31:59;5.70;99.90
64685;DHT22;51109;47.414;18.954;2023-12-20T11:34:27;6.20;99.90
64685;DHT22;51109;47.414;18.954;2023-12-20T11:36:58;6.20;99.90
64685;DHT22;51109;47.414;18.954;2023-12-20T11:39:26;6.50;99.90
64685;DHT22;51109;47.414;18.954;2023-12-20T11:41:55;6.50;99.90
64685;DHT22;51109;47.414;18.954;2023-12-20T11:44:22;6.50;99.90
64685;DHT22;51109;47.414;18.954;2023-12-20T11:46:47;6.40;99.90
64685;DHT22;51109;47.414;18.954;2023-12-20T11:49:13;6.30;99.90
64685;DHT22;51109;47.414;18.954;2023-12-20T11:51:42;6.30;99.90
64685;DHT22;51109;47.414;18.954;2023-12-20T11:54:09;6.40;99.90
64685;DHT22;51109;47.414;18.954;2023-12-20T11:56:36;6.60;99.90
64685;DHT22;51109;47.414;18.954;2023-12-20T11:59:03;6.60;99.90
64685;DHT22;51109;47.414;18.954;2023-12-20T12:01:29;6.80;99.90
64685;DHT22;51109;47.414;18.954;2023-12-20T12:04:06;6.80;99.90
64685;DHT22;51109;47.414;18.954;2023-12-20T12:06:33;7.10;99.90
64685;DHT22;51109;47.414;18.954;2023-12-20T12:08:59;7.10;99.90
64685;DHT22;51109;47.414;18.954;2023-12-20T12:11:25;7.10;99.90
64685;DHT22;51109;47.414;18.954;2023-12-20T12:13:51;7.20;99.90
64685;DHT22;51109;47.414;18.954;2023-12-20T12:16:18;7.30;99.90
64685;DHT22;51109;47.414;18.954;2023-12-20T12:18:45;7.30;99.90
64685;DHT22;51109;47.414;18.954;2023-12-20T12:21:18;7.20;99.90
64685;DHT22;51109;47.414;18.954;2023-12-20T12:23:44;7.30;99.90
64685;DHT22;51109;47.414;18.954;2023-12-20T12:26:10;7.30;99.90
64685;DHT22;51109;47.414;18.954;2023-12-20T12:28:35;7.20;99.90
64685;DHT22;51109;47.414;18.954;2023-12-20T12:31:01;7.10;99.90
64685;DHT22;51109;47.414;18.954;2023-12-20T12:33:29;7.10;99.90
64685;DHT22;51109;47.414;18.954;2023-12-20T12:35:55;7.10;99.90
64685;DHT22;51109;47.414;18.954;2023-12-20T12:38:22;7.00;99.90
64685;DHT22;51109;47.414;18.954;2023-12-20T12:40:49;6.90;99.90
64685;DHT22;51109;47.414;18.954;2023-12-20T12:43:15;6.80;99.90
64685;DHT22;51109;47.414;18.954;2023-12-20T12:45:41;6.60;99.90
64685;DHT22;51109;47.414;18.954;2023-12-20T12:48:07;6.60;99.90
64685;DHT22;51109;47.414;18.954;2023-12-20T12:50:33;6.40;99.90
64685;DHT22;51109;47.414;18.954;2023-12-20T12:52:58;6.40;99.90
64685;DHT22;51109;47.414;18.954;2023-12-20T12:55:24;6.30;99.90
64685;DHT22;51109;47.414;18.954;2023-12-20T12:57:50;6.20;99.90
64685;DHT22;51109;47.414;18.954;2023-12-20T13:00:16;6.10;99.90
64685;DHT22;51109;47.414;18.954;2023-12-20T13:02:42;6.10;99.90
64685;DHT22;51109;47.414;18.954;2023-12-20T13:05:08;6.00;99.90
64685;DHT22;51109;47.414;18.954;2023-12-20T13:07:34;5.90;99.90
64685;DHT22;51109;47.414;18.954;2023-12-20T13:10:01;5.80;99.90
64685;DHT22;51109;47.414;18.954;2023-12-20T13:12:27;5.70;99.90
64685;DHT22;51109;47.414;18.954;2023-12-20T13:14:52;5.60;99.90
64685;DHT22;51109;47.414;18.954;2023-12-20T13:17:19;5.60;99.90
64685;DHT22;51109;47.414;18.954;2023-12-20T13:19:45;5.60;99.90
64685;DHT22;51109;47.414;18.954;2023-12-20T13:22:11;5.50;99.90
64685;DHT22;51109;47.414;18.954;2023-12-20T13:24:37;5.40;99.90
64685;DHT22;51109;47.414;18.954;2023-12-20T13:27:03;5.40;99.90
64685;DHT22;51109;47.414;18.954;2023-12-20T13:29:29;5.30;99.90
64685;DHT22;51109;47.414;18.954;2023-12-20T13:31:54;5.30;99.90
64685;DHT22;51109;47.414;18.954;2023-12-20T13:34:20;5.30;99.90
64685;DHT22;51109;47.414;18.954;2023-12-20T13:36:47;5.20;99.90
64685;DHT22;51109;47.414;18.954;2023-12-20T13:39:13;5.20;99.90
64685;DHT22;51109;47.414;18.954;2023-12-20T13:41:39;5.20;99.90
64685;DHT22;51109;47.414;18.954;2023-12-20T13:44:05;5.10;99.90
64685;DHT22;51109;47.414;18.954;2023-12-20T13:46:31;5.00;99.90
64685;DHT22;51109;47.414;18.954;2023-12-20T13:48:57;4.90;99.90
64685;DHT22;51109;47.414;18.954;2023-12-20T13:51:23;4.80;99.90
64685;DHT22;51109;47.414;18.954;2023-12-20T13:53:49;4.80;99.90
64685;DHT22;51109;47.414;18.954;2023-12-20T13:56:15;4.80;99.90
64685;DHT22;51109;47.414;18.954;2023-12-20T14:01:10;4.70;99.90
64685;DHT22;51109;47.414;18.954;2023-12-20T14:03:37;4.60;99.90
64685;DHT22;51109;47.414;18.954;2023-12-20T14:06:03;4.60;99.90
64685;DHT22;51109;47.414;18.954;2023-12-20T14:08:29;4.60;99.90
64685;DHT22;51109;47.414;18.954;2023-12-20T14:10:55;4.50;99.90
64685;DHT22;51109;47.414;18.954;2023-12-20T14:13:20;4.50;99.90
64685;DHT22;51109;47.414;18.954;2023-12-20T14:15:46;4.40;99.90
64685;DHT22;51109;47.414;18.954;2023-12-20T14:18:13;6.90;99.90
64685;DHT22;51109;47.414;18.954;2023-12-20T14:20:40;4.30;99.90
64685;DHT22;51109;47.414;18.954;2023-12-20T14:23:08;4.30;99.90
64685;DHT22;51109;47.414;18.954;2023-12-20T14:25:35;4.30;99.90
64685;DHT22;51109;47.414;18.954;2023-12-20T14:28:03;4.20;99.90
64685;DHT22;51109;47.414;18.954;2023-12-20T14:30:29;4.20;99.90
64685;DHT22;51109;47.414;18.954;2023-12-20T14:32:55;4.10;99.90
64685;DHT22;51109;47.414;18.954;2023-12-20T14:35:21;4.10;99.90
64685;DHT22;51109;47.414;18.954;2023-12-20T14:37:47;4.10;99.90
64685;DHT22;51109;47.414;18.954;2023-12-20T14:40:12;4.10;99.90
64685;DHT22;51109;47.414;18.954;2023-12-20T14:42:43;4.10;99.90
64685;DHT22;51109;47.414;18.954;2023-12-20T14:45:09;4.00;99.90
64685;DHT22;51109;47.414;18.954;2023-12-20T14:47:35;4.00;99.90
64685;DHT22;51109;47.414;18.954;2023-12-20T14:50:04;4.00;99.90
64685;DHT22;51109;47.414;18.954;2023-12-20T14:52:31;4.00;99.90
64685;DHT22;51109;47.414;18.954;2023-12-20T14:54:57;4.00;99.90
64685;DHT22;51109;47.414;18.954;2023-12-20T14:57:23;4.00;99.90
64685;DHT22;51109;47.414;18.954;2023-12-20T14:59:49;3.90;99.90
64685;DHT22;51109;47.414;18.954;2023-12-20T15:02:14;4.00;99.90
64685;DHT22;51109;47.414;18.954;2023-12-20T15:04:41;3.90;99.90
64685;DHT22;51109;47.414;18.954;2023-12-20T15:07:07;4.00;99.90
64685;DHT22;51109;47.414;18.954;2023-12-20T15:09:32;4.00;99.90
64685;DHT22;51109;47.414;18.954;2023-12-20T15:11:58;4.00;99.90
64685;DHT22;51109;47.414;18.954;2023-12-20T15:14:24;4.00;99.90
64685;DHT22;51109;47.414;18.954;2023-12-20T15:16:50;4.00;99.90
64685;DHT22;51109;47.414;18.954;2023-12-20T15:19:16;4.00;99.90
64685;DHT22;51109;47.414;18.954;2023-12-20T15:21:41;3.90;99.90
64685;DHT22;51109;47.414;18.954;2023-12-20T15:24:11;4.00;99.90
64685;DHT22;51109;47.414;18.954;2023-12-20T15:26:42;4.00;99.90
64685;DHT22;51109;47.414;18.954;2023-12-20T15:29:09;3.90;99.90
64685;DHT22;51109;47.414;18.954;2023-12-20T15:31:37;4.00;99.90
64685;DHT22;51109;47.414;18.954;2023-12-20T15:34:07;4.00;99.90
64685;DHT22;51109;47.414;18.954;2023-12-20T15:36:32;4.00;99.90